Time;durP1;ratioP1;P1;durP2;ratioP2;P2;SDS_P1;SDS_P2;PMS_P1;PMS_P2;Temp;Humidity;BMP_temperature;BMP_pressure;BME280_temperature;BME280_humidity;BME280_pressure;Samples;Min_cycle;Max_cycle;Signal;HPM_P1;HPM_P2
2020/12/09 00:01:11;;;;;;;6.55;3.85;;;4.10;99.90;;;;;;5063699;28;20443;-47
2020/12/09 00:03:37;;;;;;;5.35;3.85;;;4.10;99.90;;;;;;5064989;28;20072;-47
2020/12/09 00:06:02;;;;;;;6.07;4.32;;;4.10;99.90;;;;;;5083515;28;20032;-48
2020/12/09 00:08:28;;;;;;;6.15;3.88;;;4.00;99.90;;;;;;5086582;28;20028;-47
2020/12/09 00:10:53;;;;;;;6.35;4.28;;;4.10;99.90;;;;;;5086177;28;20036;-47
2020/12/09 00:13:19;;;;;;;5.25;3.67;;;4.10;99.90;;;;;;5085954;28;20051;-47
2020/12/09 00:15:45;;;;;;;5.45;3.55;;;4.30;99.90;;;;;;5086030;28;20028;-48
2020/12/09 00:18:10;;;;;;;5.47;3.75;;;4.30;99.90;;;;;;5086035;28;20032;-49
2020/12/09 00:20:36;;;;;;;6.10;4.35;;;4.20;99.90;;;;;;5086031;28;20573;-48
2020/12/09 00:23:02;;;;;;;6.65;4.60;;;4.10;99.90;;;;;;5084475;28;20016;-49
2020/12/09 00:25:27;;;;;;;8.45;5.53;;;4.00;99.90;;;;;;5086478;28;20059;-47
2020/12/09 00:27:53;;;;;;;8.75;5.70;;;3.90;99.90;;;;;;5086036;28;20020;-48
2020/12/09 00:30:19;;;;;;;7.63;4.82;;;4.00;99.90;;;;;;5086114;28;20028;-48
2020/12/09 00:32:44;;;;;;;7.90;5.25;;;3.90;99.90;;;;;;5085646;28;20081;-49
2020/12/09 00:35:10;;;;;;;9.02;6.10;;;4.00;99.90;;;;;;5082328;28;20123;-49
2020/12/09 00:37:36;;;;;;;8.35;5.60;;;4.00;99.90;;;;;;5085086;28;20031;-48
2020/12/09 00:40:04;;;;;;;10.32;6.10;;;4.00;99.90;;;;;;5084713;28;20064;-51
2020/12/09 00:42:32;;;;;;;9.00;5.50;;;4.00;99.90;;;;;;5080392;28;20589;-50
2020/12/09 00:44:58;;;;;;;9.23;6.20;;;4.00;99.90;;;;;;5066434;28;20029;-48
2020/12/09 00:47:23;;;;;;;10.13;6.63;;;4.00;99.90;;;;;;5065341;28;20036;-51
2020/12/09 00:50:27;;;;;;;10.85;6.72;;;3.90;99.90;;;;;;5065575;28;20021;-49
2020/12/09 00:52:44;;;;;;;11.57;6.88;;;3.80;99.90;;;;;;5064874;28;20028;-49
2020/12/09 00:55:10;;;;;;;10.95;7.10;;;3.90;99.90;;;;;;5065319;28;20024;-47
2020/12/09 00:57:36;;;;;;;9.73;6.13;;;3.90;99.90;;;;;;5065350;28;20127;-49
2020/12/09 01:00:08;;;;;;;7.75;5.30;;;3.90;99.90;;;;;;5065792;28;20024;-48
2020/12/09 01:02:34;;;;;;;8.70;5.65;;;3.90;99.90;;;;;;5085271;28;20103;-47
2020/12/09 01:05:00;;;;;;;8.82;5.88;;;3.90;99.90;;;;;;5086232;28;20016;-48
2020/12/09 01:07:26;;;;;;;10.07;6.22;;;3.90;99.90;;;;;;5085478;28;20387;-49
2020/12/09 01:09:51;;;;;;;9.27;6.50;;;3.80;99.90;;;;;;5085540;28;20024;-49
2020/12/09 01:12:17;;;;;;;9.38;6.07;;;3.80;99.90;;;;;;5067681;28;20038;-47
2020/12/09 01:14:43;;;;;;;9.95;6.60;;;3.80;99.90;;;;;;5068584;28;20032;-48
2020/12/09 01:17:09;;;;;;;10.93;7.22;;;3.80;99.90;;;;;;5068925;28;20036;-47
2020/12/09 01:19:34;;;;;;;12.73;7.90;;;3.70;99.90;;;;;;5076499;28;20122;-50
2020/12/09 01:22:07;;;;;;;10.38;6.45;;;3.80;99.90;;;;;;5089694;28;20635;-48
2020/12/09 01:24:33;;;;;;;9.00;5.75;;;4.00;99.90;;;;;;5071377;28;20020;-48
2020/12/09 01:26:59;;;;;;;8.75;5.43;;;4.10;99.90;;;;;;5069196;28;20459;-47
2020/12/09 01:29:25;;;;;;;10.13;6.63;;;4.20;99.90;;;;;;5068617;28;20033;-48
2020/12/09 01:31:58;;;;;;;10.52;6.35;;;4.00;99.90;;;;;;5069330;28;20153;-48
2020/12/09 01:34:24;;;;;;;7.70;5.32;;;3.90;99.90;;;;;;5068051;28;20074;-49
2020/12/09 01:36:50;;;;;;;8.13;5.10;;;4.10;99.90;;;;;;5068891;28;20115;-49
2020/12/09 01:39:16;;;;;;;10.00;6.45;;;4.00;99.90;;;;;;5072783;28;20032;-48
2020/12/09 01:41:41;;;;;;;8.10;5.47;;;3.90;99.90;;;;;;5089007;28;20110;-49
2020/12/09 01:44:07;;;;;;;9.55;6.60;;;4.00;99.90;;;;;;5089766;28;20097;-48
2020/12/09 01:46:33;;;;;;;8.48;5.22;;;3.90;99.90;;;;;;5088630;28;20421;-48
2020/12/09 01:49:01;;;;;;;9.95;6.13;;;4.10;99.90;;;;;;5088771;28;20024;-47
2020/12/09 01:51:28;;;;;;;9.38;5.78;;;4.10;99.90;;;;;;5083605;28;20494;-47
2020/12/09 01:53:55;;;;;;;6.30;4.43;;;4.00;99.90;;;;;;5068246;28;20052;-50
2020/12/09 01:56:22;;;;;;;6.10;4.03;;;4.20;99.90;;;;;;5067990;28;20067;-51
2020/12/09 01:58:50;;;;;;;8.88;5.00;;;4.30;99.90;;;;;;5068545;28;20471;-49
2020/12/09 02:01:16;;;;;;;10.32;5.65;;;4.30;99.90;;;;;;5068427;28;20074;-50
2020/12/09 02:03:42;;;;;;;11.93;6.53;;;4.20;99.90;;;;;;5068138;28;20036;-50
2020/12/09 02:06:08;;;;;;;9.48;5.45;;;4.10;99.90;;;;;;5068997;28;20058;-47
2020/12/09 02:08:34;;;;;;;12.88;6.70;;;4.00;99.90;;;;;;5068048;28;20120;-47
2020/12/09 02:11:02;;;;;;;10.13;5.80;;;4.00;99.90;;;;;;5068225;28;20119;-47
2020/12/09 02:13:28;;;;;;;7.47;4.82;;;4.10;99.90;;;;;;5070449;28;20056;-47
2020/12/09 02:15:54;;;;;;;10.25;6.00;;;4.00;99.90;;;;;;5068303;28;20036;-49
2020/12/09 02:18:20;;;;;;;9.73;5.88;;;4.00;99.90;;;;;;5067976;28;20035;-51
2020/12/09 02:20:46;;;;;;;10.23;5.40;;;4.10;99.90;;;;;;5068060;28;20024;-49
2020/12/09 02:23:12;;;;;;;9.68;5.45;;;4.20;99.90;;;;;;5068294;28;20058;-49
2020/12/09 02:25:38;;;;;;;11.27;6.47;;;4.00;99.90;;;;;;5067375;28;20032;-50
2020/12/09 02:28:04;;;;;;;10.68;6.13;;;4.00;99.90;;;;;;5068075;28;20036;-48
2020/12/09 02:30:30;;;;;;;12.88;7.03;;;4.00;99.90;;;;;;5067226;28;20107;-48
2020/12/09 02:32:55;;;;;;;8.30;5.40;;;3.90;99.90;;;;;;5067793;28;20046;-48
2020/12/09 02:35:21;;;;;;;9.60;6.30;;;3.90;99.90;;;;;;5067157;28;20430;-50
2020/12/09 02:37:47;;;;;;;10.70;5.85;;;3.90;99.90;;;;;;5066967;28;20450;-47
2020/12/09 02:40:12;;;;;;;11.07;6.45;;;4.10;99.90;;;;;;5067924;28;20386;-49
2020/12/09 02:42:39;;;;;;;10.88;6.15;;;3.90;99.90;;;;;;5067930;28;20021;-48
2020/12/09 02:45:04;;;;;;;8.13;5.30;;;3.90;99.90;;;;;;5067617;28;20032;-49
2020/12/09 02:47:30;;;;;;;6.82;4.50;;;4.00;99.90;;;;;;5067031;28;20502;-49
2020/12/09 02:49:56;;;;;;;8.02;4.93;;;4.00;99.90;;;;;;5067579;28;20119;-48
2020/12/09 02:52:22;;;;;;;7.18;4.90;;;4.00;99.90;;;;;;5084375;28;20657;-51
2020/12/09 02:54:49;;;;;;;7.35;4.85;;;4.00;99.90;;;;;;5087235;28;20060;-50
2020/12/09 02:57:15;;;;;;;7.53;5.00;;;4.00;99.90;;;;;;5086963;28;20058;-48
2020/12/09 02:59:40;;;;;;;7.35;4.70;;;4.10;99.90;;;;;;5073075;28;20084;-48
2020/12/09 03:02:06;;;;;;;8.27;5.25;;;4.30;99.90;;;;;;5066312;28;20035;-48
2020/12/09 03:04:33;;;;;;;7.80;5.38;;;4.20;99.90;;;;;;5065398;28;20077;-48
2020/12/09 03:06:58;;;;;;;6.50;4.90;;;4.10;99.90;;;;;;5065383;28;20702;-48
2020/12/09 03:09:24;;;;;;;8.60;5.40;;;4.00;99.90;;;;;;5064109;28;20032;-47
2020/12/09 03:11:49;;;;;;;7.53;4.95;;;4.00;99.90;;;;;;5065482;28;20060;-49
2020/12/09 03:14:15;;;;;;;8.73;5.53;;;4.00;99.90;;;;;;5065126;28;20103;-47
2020/12/09 03:16:41;;;;;;;6.80;4.85;;;4.10;99.90;;;;;;5064537;28;20636;-48
2020/12/09 03:19:06;;;;;;;7.47;5.32;;;4.10;99.90;;;;;;5065310;28;20036;-48
2020/12/09 03:21:32;;;;;;;8.18;5.20;;;4.00;99.90;;;;;;5065228;28;20478;-49
2020/12/09 03:23:57;;;;;;;8.38;5.55;;;4.00;99.90;;;;;;5072306;28;20286;-48
2020/12/09 03:26:26;;;;;;;8.68;6.05;;;4.00;99.90;;;;;;5066838;28;20017;-48
2020/12/09 03:28:53;;;;;;;8.77;6.07;;;3.90;99.90;;;;;;5066553;28;20484;-48
2020/12/09 03:31:19;;;;;;;9.95;6.53;;;3.80;99.90;;;;;;5067095;28;20021;-47
2020/12/09 03:33:44;;;;;;;9.93;6.18;;;3.80;99.90;;;;;;5065069;28;20063;-48
2020/12/09 03:36:10;;;;;;;8.00;5.70;;;3.70;99.90;;;;;;5066559;28;20128;-47
2020/12/09 03:38:36;;;;;;;7.28;4.72;;;3.80;99.90;;;;;;5066210;28;20036;-48
2020/12/09 03:41:02;;;;;;;9.25;6.22;;;3.80;99.90;;;;;;5066715;28;20025;-47
2020/12/09 03:43:27;;;;;;;11.20;7.00;;;3.70;99.90;;;;;;5065918;28;20082;-48
2020/12/09 03:45:53;;;;;;;8.32;6.03;;;3.70;99.90;;;;;;5067028;28;20021;-48
2020/12/09 03:48:19;;;;;;;9.02;5.85;;;3.70;99.90;;;;;;5066281;28;20028;-47
2020/12/09 03:50:44;;;;;;;10.32;6.10;;;3.80;99.90;;;;;;5066024;28;20035;-48
2020/12/09 03:53:10;;;;;;;9.25;6.35;;;3.60;99.90;;;;;;5065501;28;20036;-48
2020/12/09 03:55:35;;;;;;;8.95;5.82;;;3.60;99.90;;;;;;5065459;28;20055;-48
2020/12/09 03:58:01;;;;;;;8.95;6.05;;;3.70;99.90;;;;;;5066264;28;20047;-48
2020/12/09 04:00:28;;;;;;;11.00;7.00;;;3.70;99.90;;;;;;5065911;28;20029;-50
2020/12/09 04:02:54;;;;;;;10.90;7.30;;;3.70;99.90;;;;;;5066065;28;20024;-50
2020/12/09 04:05:21;;;;;;;8.48;5.75;;;3.50;99.90;;;;;;5066255;28;20426;-49
2020/12/09 04:07:46;;;;;;;10.35;6.72;;;3.50;99.90;;;;;;5066109;28;20028;-48
2020/12/09 04:10:12;;;;;;;11.65;7.22;;;3.40;99.90;;;;;;5066193;28;20035;-49
2020/12/09 04:12:38;;;;;;;9.45;6.38;;;3.40;99.90;;;;;;5066015;28;20546;-46
2020/12/09 04:15:04;;;;;;;10.98;6.18;;;3.40;99.90;;;;;;5065824;28;20027;-47
2020/12/09 04:17:30;;;;;;;7.45;5.00;;;3.50;99.90;;;;;;5065890;28;20100;-47
2020/12/09 04:19:55;;;;;;;9.57;5.75;;;3.50;99.90;;;;;;5066085;28;20144;-48
2020/12/09 04:22:21;;;;;;;9.13;5.82;;;3.60;99.90;;;;;;5065775;28;20029;-50
2020/12/09 04:24:47;;;;;;;11.25;6.68;;;3.60;99.90;;;;;;5086102;28;20394;-48
2020/12/09 04:27:12;;;;;;;14.65;7.75;;;3.60;99.90;;;;;;5086237;28;20020;-50
2020/12/09 04:29:38;;;;;;;11.25;6.40;;;3.50;99.90;;;;;;5077314;28;20032;-49
2020/12/09 04:32:04;;;;;;;9.73;5.88;;;3.50;99.90;;;;;;5065880;28;20498;-48
2020/12/09 04:34:34;;;;;;;11.15;6.50;;;3.40;99.90;;;;;;5064541;28;20029;-48
2020/12/09 04:37:00;;;;;;;9.90;6.45;;;3.40;99.90;;;;;;5065804;28;20103;-47
2020/12/09 04:39:26;;;;;;;9.60;6.13;;;3.40;99.90;;;;;;5064369;28;20601;-47
2020/12/09 04:41:52;;;;;;;9.20;5.75;;;3.50;99.90;;;;;;5065695;28;20025;-48
2020/12/09 04:44:19;;;;;;;8.85;5.32;;;3.40;99.90;;;;;;5065738;28;20604;-49
2020/12/09 04:46:49;;;;;;;9.27;5.35;;;3.40;99.90;;;;;;5068809;28;20028;-51
2020/12/09 04:49:21;;;;;;;10.02;5.93;;;3.50;99.90;;;;;;5084615;28;20031;-48
2020/12/09 04:52:17;;;;;;;9.60;6.07;;;3.40;99.90;;;;;;5089682;28;20062;-49
2020/12/09 04:54:46;;;;;;;9.77;6.15;;;3.50;99.90;;;;;;5089654;28;20024;-51
2020/12/09 04:57:12;;;;;;;8.45;6.13;;;3.40;99.90;;;;;;5090337;28;20597;-50
2020/12/09 04:59:42;;;;;;;10.85;7.07;;;3.40;99.90;;;;;;5089819;28;20329;-47
2020/12/09 05:02:10;;;;;;;9.77;5.63;;;3.30;99.90;;;;;;5089975;28;20383;-48
2020/12/09 05:04:37;;;;;;;10.77;6.68;;;3.40;99.90;;;;;;5089345;28;20020;-49
2020/12/09 05:07:11;;;;;;;10.70;6.30;;;3.30;99.90;;;;;;5090014;28;20458;-47
2020/12/09 05:09:44;;;;;;;10.65;6.53;;;3.30;99.90;;;;;;5078066;28;20509;-48
2020/12/09 05:12:15;;;;;;;10.25;6.72;;;3.30;99.90;;;;;;5084026;28;20051;-48
2020/12/09 05:14:46;;;;;;;11.52;7.38;;;3.10;99.90;;;;;;5089674;28;20036;-50
2020/12/09 05:17:15;;;;;;;10.85;7.53;;;3.10;99.90;;;;;;5075447;28;20032;-50
2020/12/09 05:19:42;;;;;;;11.77;7.25;;;3.00;99.90;;;;;;5067732;28;20060;-50
2020/12/09 05:22:14;;;;;;;11.38;7.32;;;3.00;99.90;;;;;;5078861;28;20020;-48
2020/12/09 05:24:39;;;;;;;14.93;7.78;;;2.90;99.90;;;;;;5087941;28;20016;-48
2020/12/09 05:27:05;;;;;;;11.88;7.65;;;2.90;99.90;;;;;;5074032;28;20039;-51
2020/12/09 05:29:31;;;;;;;11.10;7.35;;;2.90;99.90;;;;;;5070586;28;20090;-48
2020/12/09 05:32:02;;;;;;;14.35;8.27;;;2.90;99.90;;;;;;5077233;28;20037;-49
2020/12/09 05:34:30;;;;;;;21.05;11.27;;;2.90;99.90;;;;;;5082179;28;20024;-50
2020/12/09 05:36:59;;;;;;;16.73;10.10;;;2.80;99.90;;;;;;5088218;28;20050;-54
2020/12/09 05:39:25;;;;;;;16.63;10.32;;;2.80;99.90;;;;;;5068435;28;20127;-50
2020/12/09 05:41:51;;;;;;;13.52;7.97;;;2.90;99.90;;;;;;5068664;28;20589;-51
2020/12/09 05:44:17;;;;;;;12.50;8.02;;;3.00;99.90;;;;;;5080770;28;20109;-52
2020/12/09 05:47:03;;;;;;;16.73;9.35;;;3.00;99.90;;;;;;5089118;28;20025;-52
2020/12/09 05:49:37;;;;;;;12.25;7.35;;;2.90;99.90;;;;;;5072626;28;20398;-51
2020/12/09 05:52:20;;;;;;;11.50;6.30;;;2.90;99.90;;;;;;5071362;28;20447;-50
2020/12/09 05:54:51;;;;;;;9.02;5.70;;;3.00;99.90;;;;;;5086137;28;20032;-50
2020/12/09 05:57:19;;;;;;;9.75;6.50;;;3.00;99.90;;;;;;5078437;28;20040;-53
2020/12/09 05:59:46;;;;;;;9.90;6.57;;;3.00;99.90;;;;;;5067400;28;20025;-53
2020/12/09 06:02:12;;;;;;;8.60;5.70;;;3.10;99.90;;;;;;5068335;28;20032;-53
2020/12/09 06:04:46;;;;;;;11.95;7.00;;;3.10;99.90;;;;;;5066583;28;20020;-51
2020/12/09 06:07:11;;;;;;;9.93;6.40;;;3.10;99.90;;;;;;5067257;28;20028;-49
2020/12/09 06:09:38;;;;;;;8.02;5.30;;;3.10;99.90;;;;;;5066479;28;20024;-50
2020/12/09 06:12:04;;;;;;;11.63;5.78;;;3.20;99.90;;;;;;5068251;28;20672;-50
2020/12/09 06:14:30;;;;;;;8.40;5.55;;;3.10;99.90;;;;;;5067360;28;20031;-51
2020/12/09 06:16:56;;;;;;;10.50;6.45;;;3.10;99.90;;;;;;5082540;28;20070;-51
2020/12/09 06:19:26;;;;;;;11.40;7.55;;;3.20;99.90;;;;;;5068613;28;20111;-51
2020/12/09 06:21:57;;;;;;;10.00;6.32;;;3.20;99.90;;;;;;5065687;28;20070;-50
2020/12/09 06:24:26;;;;;;;9.45;6.63;;;3.40;99.90;;;;;;5065546;28;20027;-50
2020/12/09 06:26:52;;;;;;;11.80;6.47;;;3.30;99.90;;;;;;5066604;28;20298;-52
2020/12/09 06:29:25;;;;;;;11.02;6.88;;;3.40;99.90;;;;;;5066470;28;20053;-49
2020/12/09 06:32:00;;;;;;;9.00;6.18;;;3.30;99.90;;;;;;5065933;28;20036;-49
2020/12/09 06:34:27;;;;;;;9.00;6.15;;;3.30;99.90;;;;;;5065097;28;20029;-49
2020/12/09 06:37:12;;;;;;;10.93;6.53;;;3.30;99.90;;;;;;5066253;28;20164;-49
2020/12/09 06:39:38;;;;;;;10.43;5.65;;;3.40;99.90;;;;;;5065826;28;20029;-49
2020/12/09 06:42:06;;;;;;;10.63;6.25;;;3.50;99.90;;;;;;5066081;28;20036;-49
2020/12/09 06:44:32;;;;;;;9.85;6.38;;;3.40;99.90;;;;;;5065435;28;20833;-49
2020/12/09 06:46:59;;;;;;;11.80;7.25;;;3.30;99.90;;;;;;5071360;28;20115;-49
2020/12/09 06:49:27;;;;;;;9.63;6.07;;;3.20;99.90;;;;;;5085984;28;20024;-51
2020/12/09 06:51:54;;;;;;;11.57;5.60;;;3.30;99.90;;;;;;5084891;28;20092;-49
2020/12/09 06:54:19;;;;;;;12.13;5.95;;;3.40;99.90;;;;;;5085039;28;20142;-49
2020/12/09 06:57:23;;;;;;;11.77;6.68;;;3.60;99.90;;;;;;5085687;28;20573;-49
2020/12/09 07:00:20;;;;;;;25.15;9.55;;;3.60;99.90;;;;;;5085797;28;20031;-48
2020/12/09 07:02:48;;;;;;;20.65;8.38;;;3.30;99.90;;;;;;5070173;28;20027;-49
2020/12/09 07:05:33;;;;;;;15.10;6.85;;;3.50;99.90;;;;;;5076155;28;20020;-50
2020/12/09 07:08:01;;;;;;;12.25;6.30;;;3.60;99.90;;;;;;5067413;28;20425;-49
2020/12/09 07:10:29;;;;;;;15.23;6.28;;;3.60;99.90;;;;;;5066476;28;20036;-48
2020/12/09 07:13:09;;;;;;;15.90;6.88;;;3.70;99.90;;;;;;5066660;28;20032;-50
2020/12/09 07:15:47;;;;;;;19.85;8.57;;;3.50;99.90;;;;;;5069943;28;20111;-49
2020/12/09 07:18:13;;;;;;;24.05;10.00;;;3.30;99.90;;;;;;5069373;28;20028;-49
2020/12/09 07:20:41;;;;;;;20.52;9.18;;;3.50;99.90;;;;;;5085110;28;20056;-50
2020/12/09 07:23:07;;;;;;;17.73;8.27;;;3.70;99.90;;;;;;5069595;28;20028;-53
2020/12/09 07:25:33;;;;;;;18.20;7.88;;;4.00;99.90;;;;;;5083732;28;20024;-49
2020/12/09 07:27:59;;;;;;;13.20;7.05;;;4.10;99.90;;;;;;5082216;28;20114;-53
2020/12/09 07:30:25;;;;;;;12.57;6.53;;;4.10;99.90;;;;;;5075654;28;20510;-49
2020/12/09 07:32:52;;;;;;;12.10;6.03;;;4.10;99.90;;;;;;5082146;28;20063;-53
2020/12/09 07:35:18;;;;;;;11.05;6.50;;;4.20;99.90;;;;;;5071596;28;20100;-49
2020/12/09 07:37:48;;;;;;;9.57;5.60;;;4.20;99.90;;;;;;5086814;28;20020;-51
2020/12/09 07:40:28;;;;;;;9.02;5.75;;;4.00;99.90;;;;;;5078368;28;20028;-50
2020/12/09 07:43:01;;;;;;;11.23;6.82;;;4.10;99.90;;;;;;5066200;28;20225;-51
2020/12/09 07:45:27;;;;;;;9.68;5.65;;;4.20;99.90;;;;;;5076685;28;20077;-50
2020/12/09 07:48:00;;;;;;;9.32;5.85;;;4.10;99.90;;;;;;5080307;28;20029;-52
2020/12/09 07:50:26;;;;;;;9.15;6.18;;;4.10;99.90;;;;;;5083400;28;20028;-49
2020/12/09 07:52:53;;;;;;;9.35;5.60;;;4.00;99.90;;;;;;5084240;28;20509;-51
2020/12/09 07:55:19;;;;;;;8.13;5.25;;;4.00;99.90;;;;;;5084697;28;20016;-49
2020/12/09 07:57:46;;;;;;;8.48;5.28;;;3.90;99.90;;;;;;5084596;28;20115;-48
2020/12/09 08:00:15;;;;;;;8.30;5.50;;;4.10;99.90;;;;;;5083736;28;20032;-49
2020/12/09 08:02:43;;;;;;;7.85;5.72;;;4.20;99.90;;;;;;5085221;28;20110;-49
2020/12/09 08:05:20;;;;;;;8.95;5.93;;;4.20;99.90;;;;;;5073415;28;20478;-50
2020/12/09 08:08:00;;;;;;;7.95;5.45;;;4.20;99.90;;;;;;5086001;28;20012;-54
2020/12/09 08:10:31;;;;;;;9.65;5.80;;;4.20;99.90;;;;;;5071912;28;20029;-49
2020/12/09 08:13:08;;;;;;;8.45;5.43;;;4.20;99.90;;;;;;5066327;28;20099;-49
2020/12/09 08:15:39;;;;;;;10.40;6.30;;;4.20;99.90;;;;;;5065614;28;20033;-52
2020/12/09 08:18:06;;;;;;;8.38;5.53;;;4.20;99.90;;;;;;5066137;28;20017;-52
2020/12/09 08:20:53;;;;;;;8.95;5.65;;;4.20;99.90;;;;;;5071826;28;20027;-50
2020/12/09 08:23:20;;;;;;;7.70;5.07;;;4.20;99.90;;;;;;5079119;28;20019;-48
2020/12/09 08:25:47;;;;;;;9.02;5.50;;;4.10;99.90;;;;;;5084954;28;20028;-49
2020/12/09 08:28:13;;;;;;;8.13;5.32;;;4.00;99.90;;;;;;5066448;28;20016;-50
2020/12/09 08:30:39;;;;;;;7.75;5.18;;;4.00;99.90;;;;;;5073235;28;20545;-49
2020/12/09 08:33:25;;;;;;;8.52;4.95;;;4.00;99.90;;;;;;5076147;28;20116;-49
2020/12/09 08:36:06;;;;;;;9.43;5.72;;;4.10;99.90;;;;;;5071274;28;20119;-49
2020/12/09 08:38:34;;;;;;;8.93;5.43;;;4.00;99.90;;;;;;5083745;28;20609;-49
2020/12/09 08:41:02;;;;;;;7.18;4.80;;;3.90;99.90;;;;;;5079368;28;20513;-49
2020/12/09 08:43:30;;;;;;;7.95;5.05;;;4.00;99.90;;;;;;5063429;28;20058;-51
2020/12/09 08:45:57;;;;;;;8.00;5.30;;;4.00;99.90;;;;;;5067019;28;20036;-51
2020/12/09 08:48:23;;;;;;;9.57;5.50;;;4.10;99.90;;;;;;5073562;28;20708;-49
2020/12/09 08:50:50;;;;;;;8.00;4.47;;;4.00;99.90;;;;;;5085852;28;20128;-50
2020/12/09 08:53:17;;;;;;;7.82;4.95;;;3.90;99.90;;;;;;5068635;28;20059;-51
2020/12/09 08:55:43;;;;;;;7.20;4.35;;;4.10;99.90;;;;;;5066219;28;20037;-51
2020/12/09 08:58:13;;;;;;;9.13;5.88;;;4.00;99.90;;;;;;5065452;28;20017;-51
2020/12/09 09:00:41;;;;;;;8.75;5.65;;;3.70;99.90;;;;;;5067797;28;20024;-48
2020/12/09 09:03:14;;;;;;;6.80;4.60;;;3.90;99.90;;;;;;5076958;28;20020;-50
2020/12/09 09:05:40;;;;;;;6.85;4.30;;;4.00;99.90;;;;;;5083871;28;20012;-50
2020/12/09 09:08:10;;;;;;;6.60;4.78;;;4.20;99.90;;;;;;5084409;28;20012;-50
2020/12/09 09:10:36;;;;;;;8.77;5.30;;;4.10;99.90;;;;;;5083780;28;20034;-49
2020/12/09 09:13:03;;;;;;;6.55;4.28;;;4.10;99.90;;;;;;5083828;28;20032;-50
2020/12/09 09:15:29;;;;;;;8.60;5.15;;;4.10;99.90;;;;;;5080620;28;20028;-51
2020/12/09 09:17:55;;;;;;;6.50;4.38;;;4.10;99.90;;;;;;5064079;28;20082;-51
2020/12/09 09:20:20;;;;;;;7.38;4.30;;;4.00;99.90;;;;;;5064847;28;20040;-51
2020/12/09 09:22:46;;;;;;;6.95;4.30;;;4.20;99.90;;;;;;5082575;28;20066;-52
2020/12/09 09:25:13;;;;;;;7.63;5.00;;;4.10;99.90;;;;;;5084276;28;20482;-52
2020/12/09 09:27:38;;;;;;;6.90;4.32;;;4.20;99.90;;;;;;5083828;28;20264;-50
2020/12/09 09:30:06;;;;;;;7.93;5.00;;;4.20;99.90;;;;;;5083844;28;20525;-53
2020/12/09 09:32:32;;;;;;;8.45;4.85;;;4.20;99.90;;;;;;5081991;28;20036;-52
2020/12/09 09:34:58;;;;;;;7.30;4.88;;;4.30;99.90;;;;;;5084076;28;20504;-52
2020/12/09 09:37:24;;;;;;;8.10;4.78;;;4.20;99.90;;;;;;5075549;28;20024;-52
2020/12/09 09:39:51;;;;;;;7.63;5.03;;;4.20;99.90;;;;;;5075949;28;20124;-51
2020/12/09 09:42:18;;;;;;;7.78;5.03;;;4.20;99.90;;;;;;5086263;28;20028;-52
2020/12/09 09:44:48;;;;;;;8.02;4.80;;;4.20;99.90;;;;;;5081528;28;20074;-51
2020/12/09 09:47:14;;;;;;;6.70;4.20;;;4.20;99.90;;;;;;5067118;28;20410;-52
2020/12/09 09:49:40;;;;;;;7.55;4.68;;;4.40;99.90;;;;;;5067433;28;20032;-53
2020/12/09 09:52:06;;;;;;;7.43;4.90;;;4.50;99.90;;;;;;5065427;28;20033;-51
2020/12/09 09:54:33;;;;;;;7.10;4.20;;;4.50;99.90;;;;;;5064571;28;20546;-52
2020/12/09 09:56:58;;;;;;;6.43;4.13;;;4.50;99.90;;;;;;5073078;28;20028;-51
2020/12/09 09:59:24;;;;;;;6.40;4.40;;;4.50;99.90;;;;;;5086653;28;20039;-52
2020/12/09 10:01:53;;;;;;;6.28;4.25;;;4.50;99.90;;;;;;5087231;28;20051;-51
2020/12/09 10:04:23;;;;;;;8.43;5.15;;;4.40;99.90;;;;;;5087034;28;20095;-52
2020/12/09 10:06:50;;;;;;;6.50;4.55;;;4.30;99.90;;;;;;5086856;28;20024;-52
2020/12/09 10:09:17;;;;;;;7.35;4.80;;;4.30;99.90;;;;;;5080723;28;20031;-52
2020/12/09 10:11:42;;;;;;;7.05;4.43;;;4.50;99.90;;;;;;5085046;28;20046;-52
2020/12/09 10:14:08;;;;;;;6.90;4.40;;;4.40;99.90;;;;;;5086885;28;20103;-52
2020/12/09 10:16:35;;;;;;;6.57;4.28;;;4.30;99.90;;;;;;5066088;28;20040;-49
2020/12/09 10:19:02;;;;;;;6.85;4.63;;;4.50;99.90;;;;;;5066157;28;20433;-51
2020/12/09 10:21:30;;;;;;;7.97;5.00;;;4.50;99.90;;;;;;5076300;28;20059;-51
2020/12/09 10:23:57;;;;;;;7.78;4.80;;;4.60;99.90;;;;;;5086392;28;20097;-50
2020/12/09 10:26:34;;;;;;;5.97;4.40;;;4.80;99.90;;;;;;5086350;28;20049;-49
2020/12/09 10:29:01;;;;;;;7.72;5.20;;;4.70;99.90;;;;;;5086301;28;20401;-52
2020/12/09 10:31:36;;;;;;;9.60;5.95;;;4.80;99.90;;;;;;5085742;28;20052;-51
2020/12/09 10:34:02;;;;;;;11.85;6.32;;;4.70;99.90;;;;;;5075216;28;20060;-49
2020/12/09 10:36:29;;;;;;;11.95;6.57;;;4.80;99.90;;;;;;5077208;28;20017;-49
2020/12/09 10:38:55;;;;;;;11.52;6.18;;;4.50;99.90;;;;;;5086061;28;20028;-51
2020/12/09 10:41:22;;;;;;;10.70;5.70;;;4.50;99.90;;;;;;5086145;28;20509;-50
2020/12/09 10:43:51;;;;;;;9.35;5.47;;;4.70;99.90;;;;;;5085834;28;20512;-51
2020/12/09 10:46:19;;;;;;;8.93;5.15;;;4.80;99.90;;;;;;5084945;28;20034;-50
2020/12/09 10:48:44;;;;;;;21.92;10.13;;;4.90;99.90;;;;;;5069200;28;20021;-49
2020/12/09 10:51:10;;;;;;;23.83;12.00;;;4.50;99.90;;;;;;5066181;28;20094;-51
2020/12/09 10:53:36;;;;;;;31.92;13.40;;;4.30;99.90;;;;;;5065503;28;20560;-50
2020/12/09 10:56:02;;;;;;;44.35;18.08;;;4.50;99.90;;;;;;5065812;28;20542;-50
2020/12/09 10:58:29;;;;;;;28.70;13.40;;;4.40;99.90;;;;;;5065426;28;20017;-49
2020/12/09 11:00:56;;;;;;;21.42;10.93;;;4.40;99.90;;;;;;5065676;28;20060;-50
2020/12/09 11:03:23;;;;;;;21.60;11.07;;;4.40;99.90;;;;;;5065574;28;20140;-49
2020/12/09 11:05:49;;;;;;;19.10;9.40;;;4.60;99.90;;;;;;5065655;28;20074;-50
2020/12/09 11:08:15;;;;;;;28.75;12.98;;;4.60;99.90;;;;;;5065674;28;20032;-51
2020/12/09 11:10:41;;;;;;;22.23;12.27;;;4.60;99.90;;;;;;5065817;28;20298;-53
2020/12/09 11:13:07;;;;;;;18.75;9.30;;;4.50;99.90;;;;;;5064125;28;20028;-51
2020/12/09 11:15:33;;;;;;;15.32;8.88;;;4.50;99.90;;;;;;5065589;28;20060;-49
2020/12/09 11:18:00;;;;;;;16.63;8.85;;;4.60;99.90;;;;;;5066172;28;20028;-50
2020/12/09 11:20:27;;;;;;;15.77;8.50;;;4.60;99.90;;;;;;5084595;28;20430;-54
2020/12/09 11:22:53;;;;;;;15.05;7.88;;;4.60;99.90;;;;;;5086042;28;20070;-50
2020/12/09 11:25:23;;;;;;;13.95;7.65;;;4.80;99.90;;;;;;5085164;28;20043;-50
2020/12/09 11:27:50;;;;;;;12.07;6.75;;;5.00;99.90;;;;;;5085128;28;20414;-52
2020/12/09 11:30:16;;;;;;;12.65;7.70;;;5.00;99.90;;;;;;5084086;28;20078;-51
2020/12/09 11:32:43;;;;;;;12.40;7.20;;;5.10;99.90;;;;;;5085024;28;20082;-52
2020/12/09 11:35:10;;;;;;;7.88;5.57;;;5.10;99.90;;;;;;5085355;28;20031;-53
2020/12/09 11:37:36;;;;;;;9.70;6.03;;;5.10;99.90;;;;;;5085007;28;20458;-52
2020/12/09 11:40:04;;;;;;;8.60;4.93;;;5.10;99.90;;;;;;5085155;28;20110;-50
2020/12/09 11:42:34;;;;;;;10.80;6.40;;;5.10;99.90;;;;;;5084531;28;20020;-50
2020/12/09 11:45:00;;;;;;;9.93;6.00;;;5.10;99.90;;;;;;5085072;28;20497;-51
2020/12/09 11:47:25;;;;;;;10.93;6.57;;;5.10;99.90;;;;;;5085601;28;20058;-50
2020/12/09 11:49:52;;;;;;;7.72;5.32;;;5.10;99.90;;;;;;5083554;28;20046;-52
2020/12/09 11:52:17;;;;;;;9.45;5.22;;;5.20;99.90;;;;;;5084027;28;20032;-50
2020/12/09 11:54:43;;;;;;;8.82;5.70;;;5.10;99.90;;;;;;5084560;28;20051;-50
2020/12/09 11:57:09;;;;;;;9.05;5.60;;;5.10;99.90;;;;;;5084449;28;20098;-48
2020/12/09 11:59:34;;;;;;;12.18;6.63;;;5.00;99.90;;;;;;5084499;28;20451;-49
2020/12/09 12:02:00;;;;;;;11.15;6.95;;;5.10;99.90;;;;;;5084903;28;20020;-49
2020/12/09 12:04:25;;;;;;;13.52;7.90;;;5.10;99.90;;;;;;5084491;28;20547;-51
2020/12/09 12:06:52;;;;;;;13.45;8.02;;;4.90;99.90;;;;;;5085382;28;20035;-53
2020/12/09 12:09:18;;;;;;;12.43;7.18;;;5.00;99.90;;;;;;5084636;28;20556;-50
2020/12/09 12:11:43;;;;;;;10.23;6.05;;;5.00;99.90;;;;;;5084076;28;20044;-50
2020/12/09 12:14:09;;;;;;;7.85;5.18;;;5.20;99.90;;;;;;5084529;28;20031;-50
2020/12/09 12:16:36;;;;;;;10.93;5.07;;;5.20;99.90;;;;;;5084046;28;20530;-50
2020/12/09 12:19:02;;;;;;;6.72;4.25;;;5.40;99.90;;;;;;5084587;28;20405;-53
2020/12/09 12:21:28;;;;;;;7.22;4.57;;;5.50;99.90;;;;;;5084336;28;20024;-52
2020/12/09 12:23:53;;;;;;;13.25;6.90;;;5.50;99.90;;;;;;5084914;28;20025;-50
2020/12/09 12:26:20;;;;;;;9.00;5.70;;;5.20;99.90;;;;;;5084138;28;20059;-50
2020/12/09 12:28:47;;;;;;;10.50;6.20;;;5.20;99.90;;;;;;5084141;28;20027;-49
2020/12/09 12:31:15;;;;;;;8.02;5.20;;;5.10;99.90;;;;;;5083223;28;20040;-51
2020/12/09 12:33:41;;;;;;;8.48;5.28;;;5.20;99.90;;;;;;5083837;28;20039;-51
2020/12/09 12:36:11;;;;;;;8.25;5.13;;;5.40;99.90;;;;;;5084486;28;20024;-49
2020/12/09 12:38:37;;;;;;;9.50;6.18;;;5.50;99.90;;;;;;5083900;28;20016;-49
2020/12/09 12:41:05;;;;;;;12.10;6.10;;;5.30;99.90;;;;;;5083913;28;20596;-49
2020/12/09 12:43:31;;;;;;;8.75;5.03;;;5.40;99.90;;;;;;5083851;28;20506;-49
2020/12/09 12:45:56;;;;;;;8.77;5.18;;;5.80;99.90;;;;;;5084116;28;20032;-49
2020/12/09 12:48:22;;;;;;;8.60;5.07;;;6.00;99.90;;;;;;5084408;28;20020;-49
2020/12/09 12:50:48;;;;;;;8.80;5.78;;;5.90;99.90;;;;;;5084275;28;20536;-49
2020/12/09 12:53:13;;;;;;;8.50;5.30;;;5.90;99.90;;;;;;5083331;28;20016;-50
2020/12/09 12:55:39;;;;;;;9.13;5.57;;;5.90;99.90;;;;;;5083758;28;20073;-51